Time;durP1;ratioP1;P1;durP2;ratioP2;P2;SDS_P1;SDS_P2;PMS_P1;PMS_P2;Temp;Humidity;BMP_temperature;BMP_pressure;BME280_temperature;BME280_humidity;BME280_pressure;Samples;Min_cycle;Max_cycle;Signal;HPM_P1;HPM_P2
2021/09/20 00:02:22;;;;;;;6.55;4.15;;;15.10;99.90;;;;;;5070994;28;20036;-76
2021/09/20 00:04:48;;;;;;;6.28;4.40;;;15.10;99.90;;;;;;5070954;28;20064;-76
2021/09/20 00:07:13;;;;;;;6.05;3.80;;;15.20;99.90;;;;;;5070990;28;20047;-77
2021/09/20 00:09:39;;;;;;;6.40;4.18;;;15.10;99.90;;;;;;5072149;28;20044;-76
2021/09/20 00:12:05;;;;;;;6.50;4.43;;;15.10;99.90;;;;;;5070784;28;20209;-76
2021/09/20 00:14:31;;;;;;;8.43;4.15;;;15.20;99.90;;;;;;5087974;28;20029;-76
2021/09/20 00:16:57;;;;;;;7.45;4.10;;;15.30;99.90;;;;;;5071846;28;20048;-76
2021/09/20 00:19:23;;;;;;;6.00;4.15;;;15.40;99.90;;;;;;5071952;28;20033;-76
2021/09/20 00:21:49;;;;;;;6.53;4.20;;;15.30;99.90;;;;;;5072354;28;20107;-76
2021/09/20 00:24:15;;;;;;;5.60;3.88;;;15.30;99.90;;;;;;5071738;28;20102;-76
2021/09/20 00:26:41;;;;;;;6.57;4.25;;;15.30;99.90;;;;;;5072035;28;20115;-76
2021/09/20 00:29:06;;;;;;;8.18;4.30;;;15.20;99.90;;;;;;5071753;28;20493;-76
2021/09/20 00:31:32;;;;;;;6.95;4.22;;;15.20;99.90;;;;;;5071942;28;20086;-76
2021/09/20 00:33:58;;;;;;;5.97;4.03;;;15.20;99.90;;;;;;5070815;28;20107;-76
2021/09/20 00:36:24;;;;;;;6.82;4.90;;;15.30;99.90;;;;;;5076174;28;20127;-76
2021/09/20 00:38:49;;;;;;;7.50;3.85;;;15.40;99.90;;;;;;5075854;28;20035;-76
2021/09/20 00:41:15;;;;;;;6.05;4.22;;;15.50;99.90;;;;;;5075790;28;20040;-76
2021/09/20 00:43:41;;;;;;;7.20;4.30;;;15.40;99.90;;;;;;5075878;28;20083;-76
2021/09/20 00:46:08;;;;;;;5.28;3.88;;;15.50;99.90;;;;;;5074420;28;20063;-76
2021/09/20 00:48:35;;;;;;;7.30;4.47;;;15.50;99.90;;;;;;5074773;28;20032;-76
2021/09/20 00:51:01;;;;;;;6.60;3.88;;;15.40;99.90;;;;;;5074134;28;20040;-76
2021/09/20 00:53:27;;;;;;;6.97;3.45;;;15.40;99.90;;;;;;5075633;28;20073;-76
2021/09/20 00:55:54;;;;;;;5.63;3.92;;;15.50;99.90;;;;;;5075788;28;20116;-76
2021/09/20 00:58:20;;;;;;;5.68;3.92;;;15.50;99.90;;;;;;5074595;28;20034;-76
2021/09/20 01:00:46;;;;;;;6.18;4.28;;;15.50;99.90;;;;;;5074405;28;20043;-76
2021/09/20 01:03:11;;;;;;;6.68;3.88;;;15.40;99.90;;;;;;5074396;28;20028;-76
2021/09/20 01:05:37;;;;;;;8.20;4.38;;;15.40;99.90;;;;;;5075372;28;20037;-76
2021/09/20 01:08:04;;;;;;;5.72;4.15;;;15.40;99.90;;;;;;5075403;28;20021;-76
2021/09/20 01:10:30;;;;;;;9.40;4.80;;;15.30;99.90;;;;;;5075447;28;20064;-76
2021/09/20 01:12:56;;;;;;;6.68;4.22;;;15.20;99.90;;;;;;5073892;28;20485;-76
2021/09/20 01:15:22;;;;;;;5.68;4.05;;;15.30;99.90;;;;;;5074956;28;20051;-76
2021/09/20 01:17:48;;;;;;;11.55;4.65;;;15.40;99.90;;;;;;5075450;28;20510;-76
2021/09/20 01:20:14;;;;;;;6.35;4.32;;;15.30;99.90;;;;;;5073499;28;20039;-76
2021/09/20 01:22:41;;;;;;;6.50;4.47;;;15.40;99.90;;;;;;5074963;28;20025;-76
2021/09/20 01:25:09;;;;;;;5.80;3.83;;;15.40;99.90;;;;;;5073602;28;20044;-75
2021/09/20 01:27:35;;;;;;;6.50;4.18;;;15.50;99.90;;;;;;5073801;28;20029;-75
2021/09/20 01:30:02;;;;;;;8.20;4.38;;;15.40;99.90;;;;;;5073778;28;20480;-75
2021/09/20 01:32:28;;;;;;;6.53;4.45;;;15.10;99.90;;;;;;5074881;28;20029;-75
2021/09/20 01:34:53;;;;;;;7.43;4.25;;;15.20;99.90;;;;;;5075059;28;20029;-75
2021/09/20 01:37:19;;;;;;;6.72;4.15;;;15.30;99.90;;;;;;5074927;28;20380;-75
2021/09/20 01:39:45;;;;;;;6.95;4.50;;;15.40;99.90;;;;;;5074537;28;20409;-75
2021/09/20 01:42:11;;;;;;;6.60;4.45;;;15.10;99.90;;;;;;5074579;28;20439;-75
2021/09/20 01:44:37;;;;;;;8.32;4.75;;;15.10;99.90;;;;;;5074911;28;20033;-76
2021/09/20 01:47:03;;;;;;;6.13;4.22;;;15.00;99.90;;;;;;5074346;28;20121;-76
2021/09/20 01:49:30;;;;;;;7.00;4.43;;;15.10;99.90;;;;;;5074554;28;20033;-76
2021/09/20 01:51:57;;;;;;;8.10;4.45;;;15.20;99.90;;;;;;5073223;28;20445;-76
2021/09/20 01:54:24;;;;;;;7.25;4.60;;;15.30;99.90;;;;;;5074731;28;20044;-76
2021/09/20 01:56:50;;;;;;;6.82;4.28;;;15.20;99.90;;;;;;5073158;28;20047;-76
2021/09/20 01:59:17;;;;;;;8.40;4.28;;;15.40;99.90;;;;;;5074525;28;20565;-76
2021/09/20 02:01:43;;;;;;;6.47;4.03;;;15.20;99.90;;;;;;5089859;28;20035;-76
2021/09/20 02:04:09;;;;;;;6.85;4.63;;;15.30;99.90;;;;;;5074458;28;20373;-76
2021/09/20 02:06:34;;;;;;;6.72;4.13;;;15.50;99.90;;;;;;5074419;28;20422;-76
2021/09/20 02:09:00;;;;;;;7.75;4.70;;;15.60;99.90;;;;;;5072878;28;20094;-76
2021/09/20 02:11:26;;;;;;;6.78;4.60;;;15.60;99.90;;;;;;5074056;28;20071;-75
2021/09/20 02:13:53;;;;;;;6.30;4.75;;;15.30;99.90;;;;;;5074113;28;20517;-75
2021/09/20 02:16:19;;;;;;;7.10;4.65;;;15.20;99.90;;;;;;5072388;28;20060;-75
2021/09/20 02:18:45;;;;;;;7.43;4.57;;;15.00;99.90;;;;;;5072872;28;20421;-76
2021/09/20 02:21:13;;;;;;;9.30;4.40;;;14.80;99.90;;;;;;5072515;28;20118;-76
2021/09/20 02:23:39;;;;;;;6.90;4.45;;;14.80;99.90;;;;;;5072756;28;20025;-76
2021/09/20 02:26:05;;;;;;;8.00;4.88;;;14.60;99.90;;;;;;5072756;28;20033;-76
2021/09/20 02:28:36;;;;;;;7.57;5.13;;;14.70;99.90;;;;;;5072682;28;20086;-76
2021/09/20 02:31:07;;;;;;;9.63;5.00;;;14.90;99.90;;;;;;5089247;28;20032;-76
2021/09/20 02:33:34;;;;;;;7.60;4.60;;;14.70;99.90;;;;;;5072763;28;20558;-76
2021/09/20 02:36:00;;;;;;;7.53;4.80;;;14.70;99.90;;;;;;5073956;28;20093;-76
2021/09/20 02:38:27;;;;;;;7.10;4.85;;;14.50;99.90;;;;;;5072657;28;20067;-76
2021/09/20 02:40:53;;;;;;;6.80;4.72;;;14.60;99.90;;;;;;5073434;28;20036;-76
2021/09/20 02:43:18;;;;;;;8.10;5.43;;;14.50;99.90;;;;;;5072103;28;20028;-76
2021/09/20 02:45:44;;;;;;;7.22;4.82;;;14.50;99.90;;;;;;5073416;28;20085;-75
2021/09/20 02:48:10;;;;;;;8.13;4.38;;;14.70;99.90;;;;;;5073111;28;20044;-75
2021/09/20 02:50:36;;;;;;;8.40;4.97;;;14.80;99.90;;;;;;5072392;28;20381;-75
2021/09/20 02:53:03;;;;;;;8.02;4.63;;;14.80;99.90;;;;;;5073218;28;20033;-75
2021/09/20 02:55:29;;;;;;;7.15;4.68;;;14.70;99.90;;;;;;5073241;28;20111;-76
2021/09/20 02:57:54;;;;;;;6.47;4.45;;;14.60;99.90;;;;;;5072459;28;20150;-75
2021/09/20 03:00:20;;;;;;;8.32;4.82;;;14.70;99.90;;;;;;5073189;28;20461;-75
2021/09/20 03:02:46;;;;;;;8.65;4.97;;;14.70;99.90;;;;;;5073060;28;20028;-76
2021/09/20 03:05:12;;;;;;;9.30;5.43;;;14.80;99.90;;;;;;5073253;28;20447;-76
2021/09/20 03:07:37;;;;;;;7.70;4.60;;;14.70;99.90;;;;;;5072987;28;20047;-76
2021/09/20 03:10:04;;;;;;;7.63;4.72;;;14.70;99.90;;;;;;5072730;28;20063;-76
2021/09/20 03:12:29;;;;;;;8.02;4.85;;;14.80;99.90;;;;;;5073090;28;20501;-75
2021/09/20 03:14:55;;;;;;;7.05;4.72;;;14.90;99.90;;;;;;5072931;28;20116;-76
2021/09/20 03:17:21;;;;;;;9.75;5.22;;;14.80;99.90;;;;;;5072534;28;20048;-75
2021/09/20 03:19:47;;;;;;;7.25;4.70;;;14.70;99.90;;;;;;5072730;28;20036;-76
2021/09/20 03:22:13;;;;;;;7.13;5.03;;;14.80;99.90;;;;;;5072523;28;20047;-75
2021/09/20 03:24:39;;;;;;;9.63;5.40;;;14.90;99.90;;;;;;5071558;28;20043;-75
2021/09/20 03:27:06;;;;;;;8.35;5.43;;;14.80;99.90;;;;;;5072531;28;20485;-77
2021/09/20 03:29:32;;;;;;;6.53;4.47;;;14.70;99.90;;;;;;5071406;28;20030;-75
2021/09/20 03:31:58;;;;;;;7.25;4.88;;;14.70;99.90;;;;;;5088526;28;20087;-75
2021/09/20 03:34:24;;;;;;;6.80;4.82;;;14.70;99.90;;;;;;5088237;28;20044;-75
2021/09/20 03:36:50;;;;;;;9.07;5.05;;;14.80;99.90;;;;;;5088165;28;20396;-76
2021/09/20 03:39:15;;;;;;;7.72;4.75;;;14.90;99.90;;;;;;5072698;28;20461;-76
2021/09/20 03:41:41;;;;;;;7.40;4.93;;;15.00;99.90;;;;;;5072381;28;20150;-76
2021/09/20 03:44:08;;;;;;;9.38;5.28;;;14.80;99.90;;;;;;5054734;28;20032;-76
2021/09/20 03:46:33;;;;;;;8.23;5.30;;;14.70;99.90;;;;;;5072278;28;20119;-76
2021/09/20 03:48:59;;;;;;;8.02;5.40;;;14.80;99.90;;;;;;5068808;28;20565;-76
2021/09/20 03:51:25;;;;;;;7.65;5.57;;;14.70;99.90;;;;;;5071067;28;20112;-76
2021/09/20 03:53:51;;;;;;;8.35;4.70;;;14.60;99.90;;;;;;5074248;28;20412;-73
2021/09/20 03:56:16;;;;;;;7.15;5.00;;;14.50;99.90;;;;;;5081018;28;20043;-74
2021/09/20 03:58:42;;;;;;;12.60;5.70;;;14.40;99.90;;;;;;5075085;28;20047;-77
2021/09/20 04:01:08;;;;;;;7.28;4.90;;;14.40;99.90;;;;;;5074457;28;20085;-78
2021/09/20 04:03:34;;;;;;;7.85;5.55;;;14.40;99.90;;;;;;5072195;28;20120;-81
2021/09/20 04:05:59;;;;;;;8.13;5.70;;;14.50;99.90;;;;;;5071064;28;20068;-77
2021/09/20 04:08:29;;;;;;;8.40;5.10;;;14.60;99.90;;;;;;5087432;28;20044;-75
2021/09/20 04:10:58;;;;;;;8.35;4.95;;;14.70;99.90;;;;;;5072089;28;20028;-77
2021/09/20 04:13:25;;;;;;;7.93;4.75;;;14.80;99.90;;;;;;5070502;28;20366;-77
2021/09/20 04:15:53;;;;;;;6.85;4.85;;;14.80;99.90;;;;;;5071984;28;20048;-77
2021/09/20 04:18:28;;;;;;;14.02;5.00;;;14.70;99.90;;;;;;5071852;28;20087;-76
2021/09/20 04:20:56;;;;;;;7.40;4.85;;;14.70;99.90;;;;;;5072278;28;20028;-76
2021/09/20 04:23:24;;;;;;;7.47;4.90;;;14.40;99.90;;;;;;5071699;28;20201;-74
2021/09/20 04:25:50;;;;;;;10.90;5.43;;;14.50;99.90;;;;;;5071043;28;20501;-77
2021/09/20 04:28:17;;;;;;;9.70;5.07;;;14.70;99.90;;;;;;5072072;28;20025;-76
2021/09/20 04:30:43;;;;;;;7.53;4.78;;;14.50;99.90;;;;;;5054151;28;20032;-76
2021/09/20 04:33:15;;;;;;;8.02;5.15;;;14.50;99.90;;;;;;5070658;28;20082;-80
2021/09/20 04:35:41;;;;;;;;;;;14.60;99.90;;;;;;5071182;28;20147;-76
2021/09/20 04:38:08;;;;;;;10.43;6.65;;;14.60;99.90;;;;;;5070579;28;19913;-75
2021/09/20 04:40:35;;;;;;;9.55;5.53;;;14.80;99.90;;;;;;5070669;28;20508;-83
2021/09/20 04:43:03;;;;;;;8.60;5.25;;;14.80;99.90;;;;;;5072068;28;20029;-76
2021/09/20 04:45:29;;;;;;;7.25;5.00;;;14.80;99.90;;;;;;5053897;28;20325;-74
2021/09/20 04:47:55;;;;;;;9.13;6.07;;;14.70;99.90;;;;;;5071738;28;20150;-77
2021/09/20 04:50:20;;;;;;;8.50;5.55;;;14.70;99.90;;;;;;5071490;28;20120;-75
2021/09/20 04:52:46;;;;;;;8.68;5.63;;;14.80;99.90;;;;;;5071816;28;20025;-76
2021/09/20 04:55:12;;;;;;;8.90;5.45;;;14.90;99.90;;;;;;5085074;28;20497;-77
2021/09/20 04:57:38;;;;;;;7.70;5.38;;;15.10;99.90;;;;;;5071832;28;20029;-76
2021/09/20 05:00:07;;;;;;;8.95;6.05;;;15.10;99.90;;;;;;5070519;28;20035;-76
2021/09/20 05:02:33;;;;;;;10.13;6.13;;;15.10;99.90;;;;;;5071704;28;20040;-76
2021/09/20 05:04:59;;;;;;;9.38;5.50;;;14.90;99.90;;;;;;5071538;28;20393;-76
2021/09/20 05:07:25;;;;;;;9.43;5.55;;;14.70;99.90;;;;;;5071336;28;20046;-76
2021/09/20 05:09:52;;;;;;;10.93;7.05;;;14.70;99.90;;;;;;5079547;28;20560;-76
2021/09/20 05:12:18;;;;;;;7.18;5.28;;;14.80;99.90;;;;;;5090085;28;20051;-76
2021/09/20 05:14:44;;;;;;;10.75;6.00;;;14.50;99.90;;;;;;5089499;28;20043;-76
2021/09/20 05:17:12;;;;;;;9.45;5.78;;;14.60;99.90;;;;;;5089621;28;20044;-74
2021/09/20 05:19:38;;;;;;;10.40;5.53;;;14.60;99.90;;;;;;5090152;28;20481;-76
2021/09/20 05:22:04;;;;;;;10.88;6.13;;;14.60;99.90;;;;;;5074587;28;20076;-77
2021/09/20 05:24:30;;;;;;;8.65;5.70;;;14.50;99.90;;;;;;5086120;28;20036;-77
2021/09/20 05:26:56;;;;;;;9.13;5.60;;;14.60;99.90;;;;;;5088516;28;20496;-81
2021/09/20 05:29:22;;;;;;;14.38;6.03;;;14.70;99.90;;;;;;5093237;28;20097;-81
2021/09/20 05:31:48;;;;;;;8.77;5.50;;;14.60;99.90;;;;;;5093909;28;20124;-79
2021/09/20 05:34:14;;;;;;;14.85;7.45;;;14.50;99.90;;;;;;5094966;28;20099;-80
2021/09/20 05:36:40;;;;;;;10.95;6.60;;;14.40;99.90;;;;;;5092502;28;20074;-76
2021/09/20 05:39:05;;;;;;;12.63;5.63;;;14.40;99.90;;;;;;5080357;28;20128;-76
2021/09/20 05:41:31;;;;;;;7.57;5.13;;;14.50;99.90;;;;;;5085136;28;20036;-76
2021/09/20 05:43:57;;;;;;;15.35;6.13;;;14.60;99.90;;;;;;5094896;28;20035;-77
2021/09/20 05:46:23;;;;;;;12.32;6.20;;;14.70;99.90;;;;;;5093185;28;20047;-77
2021/09/20 05:48:49;;;;;;;7.93;5.38;;;14.80;99.90;;;;;;5094433;28;20055;-78
2021/09/20 05:51:15;;;;;;;12.15;5.72;;;14.70;99.90;;;;;;5091375;28;20095;-77
2021/09/20 05:53:42;;;;;;;17.40;5.97;;;14.50;99.90;;;;;;5093197;28;20499;-77
2021/09/20 05:56:08;;;;;;;15.27;6.05;;;14.50;99.90;;;;;;5094747;28;20035;-77
2021/09/20 05:58:33;;;;;;;12.23;5.80;;;14.70;99.90;;;;;;5094653;28;20040;-77
2021/09/20 06:01:00;;;;;;;12.30;5.80;;;14.80;99.90;;;;;;5093012;28;20476;-77
2021/09/20 06:03:27;;;;;;;23.05;7.53;;;14.90;99.90;;;;;;5094206;28;20055;-77
2021/09/20 06:05:53;;;;;;;12.93;5.97;;;14.90;99.90;;;;;;5093065;28;20024;-76
2021/09/20 06:08:18;;;;;;;13.68;5.85;;;14.90;99.90;;;;;;5093144;28;20039;-76
2021/09/20 06:10:44;;;;;;;8.60;5.40;;;14.80;99.90;;;;;;5093345;28;20118;-76
2021/09/20 06:13:10;;;;;;;8.07;5.72;;;14.80;99.90;;;;;;5093156;28;20051;-76
2021/09/20 06:15:37;;;;;;;9.88;5.72;;;15.00;99.90;;;;;;5092522;28;20093;-77
2021/09/20 06:18:05;;;;;;;9.40;5.10;;;15.10;99.90;;;;;;5094188;28;20038;-77
2021/09/20 06:20:31;;;;;;;8.15;4.85;;;15.10;99.90;;;;;;5092794;28;20024;-77
2021/09/20 06:22:57;;;;;;;10.75;5.43;;;15.10;99.90;;;;;;5092701;28;20078;-77
2021/09/20 06:25:24;;;;;;;10.27;5.88;;;15.20;99.90;;;;;;5094065;28;20388;-77
2021/09/20 06:27:51;;;;;;;12.45;5.88;;;15.00;99.90;;;;;;5094186;28;20039;-77
2021/09/20 06:30:17;;;;;;;15.52;6.18;;;15.00;99.90;;;;;;5093803;28;20020;-77
2021/09/20 06:32:44;;;;;;;12.35;5.82;;;14.80;99.90;;;;;;5092792;28;20048;-77
2021/09/20 06:35:11;;;;;;;10.65;5.78;;;14.70;99.90;;;;;;5094135;28;20028;-76
2021/09/20 06:37:38;;;;;;;11.27;6.30;;;14.90;99.90;;;;;;5092661;28;20097;-75
2021/09/20 06:40:07;;;;;;;8.95;5.20;;;14.90;99.90;;;;;;5093612;28;20032;-76
2021/09/20 06:42:33;;;;;;;14.32;5.78;;;15.00;99.90;;;;;;5093287;28;20032;-75
2021/09/20 06:44:59;;;;;;;9.85;5.57;;;15.10;99.90;;;;;;5092531;28;20032;-75
2021/09/20 06:47:25;;;;;;;13.25;6.00;;;15.10;99.90;;;;;;5093765;28;20032;-76
2021/09/20 06:49:51;;;;;;;20.10;6.45;;;15.10;99.90;;;;;;5093772;28;20046;-76
2021/09/20 06:52:17;;;;;;;13.18;5.90;;;15.00;99.90;;;;;;5092344;28;20043;-79
2021/09/20 06:54:43;;;;;;;13.82;5.57;;;15.20;99.90;;;;;;5093178;28;20386;-78
2021/09/20 06:57:09;;;;;;;10.57;5.68;;;15.00;99.90;;;;;;5093460;28;20028;-78
2021/09/20 06:59:35;;;;;;;9.30;6.38;;;15.30;99.90;;;;;;5093099;28;20036;-77
2021/09/20 07:02:01;;;;;;;8.10;5.03;;;15.20;99.90;;;;;;5093505;28;20028;-77
2021/09/20 07:04:26;;;;;;;11.40;5.40;;;15.40;99.90;;;;;;5093407;28;20024;-75
2021/09/20 07:06:52;;;;;;;9.73;5.03;;;15.50;99.90;;;;;;5091969;28;20823;-76
2021/09/20 07:09:18;;;;;;;9.15;5.60;;;15.60;99.90;;;;;;5092894;28;20032;-76
2021/09/20 07:11:44;;;;;;;9.40;5.00;;;15.70;99.90;;;;;;5092028;28;20359;-76
2021/09/20 07:14:09;;;;;;;8.10;5.57;;;15.70;99.90;;;;;;5093647;28;20108;-76
2021/09/20 07:16:36;;;;;;;9.38;5.65;;;15.60;99.90;;;;;;5092930;28;20055;-75
2021/09/20 07:19:02;;;;;;;8.27;5.70;;;15.70;99.90;;;;;;5093353;28;20089;-76
2021/09/20 07:21:28;;;;;;;8.40;5.30;;;15.80;99.90;;;;;;5092691;28;20038;-75
2021/09/20 07:23:56;;;;;;;8.48;5.50;;;15.70;99.90;;;;;;5092619;28;20032;-75
2021/09/20 07:26:26;;;;;;;8.40;5.55;;;15.50;99.90;;;;;;5093060;28;20575;-75
2021/09/20 07:28:53;;;;;;;10.63;5.93;;;15.30;99.90;;;;;;5091677;28;20078;-76
2021/09/20 07:31:19;;;;;;;8.55;5.85;;;15.50;99.90;;;;;;5091683;28;20035;-75
2021/09/20 07:33:45;;;;;;;8.20;5.38;;;15.20;99.90;;;;;;5092764;28;20024;-75
2021/09/20 07:36:11;;;;;;;9.65;6.03;;;15.10;99.90;;;;;;5092727;28;20592;-75
2021/09/20 07:38:37;;;;;;;14.52;6.30;;;15.20;99.90;;;;;;5092545;28;20099;-75
2021/09/20 07:41:05;;;;;;;10.98;5.85;;;15.20;99.90;;;;;;5092589;28;20496;-75
2021/09/20 07:43:32;;;;;;;25.58;8.55;;;15.10;99.90;;;;;;5092458;28;20040;-76
2021/09/20 07:45:57;;;;;;;32.97;18.88;;;15.10;99.90;;;;;;5092609;28;20032;-73
2021/09/20 07:48:23;;;;;;;9.48;5.97;;;15.30;99.90;;;;;;5087455;28;20035;-73
2021/09/20 07:50:50;;;;;;;8.95;6.20;;;15.30;99.90;;;;;;5072272;28;20032;-72
2021/09/20 07:53:16;;;;;;;7.38;5.00;;;15.60;99.90;;;;;;5072400;28;20082;-72
2021/09/20 07:55:43;;;;;;;10.43;5.57;;;15.50;99.90;;;;;;5072126;28;20036;-72
2021/09/20 07:58:10;;;;;;;13.48;5.68;;;15.70;99.90;;;;;;5072177;28;20031;-69
2021/09/20 08:00:40;;;;;;;10.02;6.18;;;15.70;99.90;;;;;;5070507;28;20485;-72
2021/09/20 08:03:09;;;;;;;12.98;7.10;;;15.80;99.90;;;;;;5073581;28;20028;-72
2021/09/20 08:05:36;;;;;;;10.57;6.43;;;15.90;99.90;;;;;;5074191;28;20064;-72
2021/09/20 08:08:03;;;;;;;8.40;5.43;;;15.80;99.90;;;;;;5092111;28;20028;-72
2021/09/20 08:10:30;;;;;;;8.32;5.47;;;16.00;99.90;;;;;;5090771;28;20036;-73
2021/09/20 08:12:55;;;;;;;14.90;6.35;;;16.20;99.90;;;;;;5092351;28;20472;-72
2021/09/20 08:15:21;;;;;;;11.13;6.18;;;16.40;99.90;;;;;;5090630;28;20052;-72
2021/09/20 08:17:47;;;;;;;16.92;6.55;;;16.60;99.90;;;;;;5091294;28;20476;-73
2021/09/20 08:20:14;;;;;;;14.32;5.45;;;16.20;99.90;;;;;;5091933;28;20036;-73
2021/09/20 08:22:40;;;;;;;12.02;6.13;;;16.20;99.90;;;;;;5092243;28;20119;-73
2021/09/20 08:25:08;;;;;;;12.98;6.40;;;16.00;99.90;;;;;;5091043;28;20024;-73
2021/09/20 08:27:34;;;;;;;15.18;6.65;;;16.10;99.90;;;;;;5091942;28;20032;-73
2021/09/20 08:30:04;;;;;;;12.57;6.20;;;16.10;99.90;;;;;;5092033;28;20598;-73
2021/09/20 08:32:29;;;;;;;8.45;5.88;;;16.20;99.90;;;;;;5090678;28;20040;-73
2021/09/20 08:34:55;;;;;;;10.30;5.97;;;16.30;99.90;;;;;;5092161;28;20050;-73
2021/09/20 08:37:21;;;;;;;10.82;6.53;;;16.20;99.90;;;;;;5090911;28;20051;-73
2021/09/20 08:39:48;;;;;;;12.25;6.95;;;16.20;99.90;;;;;;5091920;28;20473;-73
2021/09/20 08:42:16;;;;;;;12.43;7.38;;;16.20;99.90;;;;;;5092061;28;20157;-73
2021/09/20 08:44:42;;;;;;;14.35;6.47;;;16.40;99.90;;;;;;5091748;28;20051;-73
2021/09/20 08:47:11;;;;;;;10.18;6.55;;;16.30;99.90;;;;;;5090604;28;20043;-73
2021/09/20 08:49:39;;;;;;;10.20;6.45;;;16.40;99.90;;;;;;5090467;28;20028;-73
2021/09/20 08:52:05;;;;;;;11.43;7.03;;;16.20;99.90;;;;;;5090737;28;20066;-73
2021/09/20 08:54:32;;;;;;;15.80;6.50;;;15.90;99.90;;;;;;5091857;28;20496;-73
2021/09/20 08:56:57;;;;;;;13.15;6.75;;;16.10;99.90;;;;;;5095283;28;20036;-72
2021/09/20 08:59:23;;;;;;;12.57;7.20;;;16.30;99.90;;;;;;5094531;28;20024;-73
2021/09/20 09:01:53;;;;;;;11.73;6.57;;;16.20;99.90;;;;;;5095810;28;20085;-73
2021/09/20 09:04:36;;;;;;;10.10;6.68;;;16.20;99.90;;;;;;5095622;28;20042;-73
2021/09/20 09:07:15;;;;;;;11.88;7.55;;;16.60;99.90;;;;;;5095609;28;20640;-73
2021/09/20 09:09:50;;;;;;;14.63;7.70;;;16.50;99.90;;;;;;5095526;28;20039;-72
2021/09/20 09:12:30;;;;;;;14.60;6.90;;;16.80;99.90;;;;;;5095239;28;20093;-72
2021/09/20 09:15:03;;;;;;;15.90;7.13;;;16.80;99.90;;;;;;5094111;28;20043;-72
2021/09/20 09:17:36;;;;;;;14.15;6.60;;;16.60;99.90;;;;;;5095025;28;20405;-73
2021/09/20 09:20:28;;;;;;;12.57;6.45;;;16.80;99.90;;;;;;5094298;28;20028;-72
2021/09/20 09:22:59;;;;;;;10.45;6.28;;;16.80;99.90;;;;;;5095183;28;20032;-73
2021/09/20 09:25:48;;;;;;;11.18;7.18;;;16.80;99.90;;;;;;5093652;28;20083;-73
2021/09/20 09:28:22;;;;;;;10.07;6.47;;;16.50;99.90;;;;;;5095164;28;20380;-73
2021/09/20 09:30:52;;;;;;;16.08;7.78;;;16.80;99.90;;;;;;5093725;28;20032;-72
2021/09/20 09:33:40;;;;;;;14.48;7.20;;;16.60;99.90;;;;;;5095058;28;20629;-72
2021/09/20 09:36:07;;;;;;;12.38;7.03;;;16.30;99.90;;;;;;5095210;28;20056;-73
2021/09/20 09:38:35;;;;;;;9.82;6.25;;;16.30;99.90;;;;;;5093514;28;20039;-73
2021/09/20 09:41:04;;;;;;;12.98;7.00;;;16.40;99.90;;;;;;5093327;28;20114;-72
2021/09/20 09:43:35;;;;;;;13.10;7.22;;;16.50;99.90;;;;;;5076733;28;20042;-73
2021/09/20 09:46:23;;;;;;;27.98;7.03;;;16.50;99.90;;;;;;5093531;28;20123;-72
2021/09/20 09:48:51;;;;;;;10.30;6.35;;;16.50;99.90;;;;;;5093841;28;20107;-73
2021/09/20 09:51:20;;;;;;;15.80;7.07;;;16.50;99.90;;;;;;5093576;28;20039;-74
2021/09/20 09:53:48;;;;;;;13.10;5.93;;;16.70;99.90;;;;;;5092978;28;20028;-73
2021/09/20 09:56:14;;;;;;;11.02;6.35;;;16.90;99.90;;;;;;5094693;28;20032;-72
2021/09/20 09:58:59;;;;;;;11.73;7.07;;;16.70;99.90;;;;;;5091543;28;20381;-72
2021/09/20 10:01:40;;;;;;;9.95;6.82;;;16.90;99.90;;;;;;5094323;28;20047;-72
2021/09/20 10:04:24;;;;;;;11.25;6.05;;;17.20;99.90;;;;;;5093328;28;20515;-72
2021/09/20 10:06:54;;;;;;;14.82;6.65;;;17.30;99.90;;;;;;5077661;28;20044;-72
2021/09/20 10:09:28;;;;;;;23.70;6.97;;;17.00;99.90;;;;;;5094953;28;20039;-73
2021/09/20 10:11:58;;;;;;;17.38;6.63;;;17.30;99.90;;;;;;5093080;28;20024;-71
2021/09/20 10:14:26;;;;;;;13.77;6.38;;;17.30;99.90;;;;;;5093204;28;20051;-72
2021/09/20 10:16:57;;;;;;;12.95;7.13;;;17.50;99.90;;;;;;5093146;28;20047;-72
2021/09/20 10:19:23;;;;;;;16.98;8.75;;;17.50;99.90;;;;;;5094446;28;20523;-76
2021/09/20 10:21:50;;;;;;;120.15;28.40;;;17.50;99.90;;;;;;5093592;28;20439;-72
2021/09/20 10:24:17;;;;;;;36.85;8.05;;;17.90;99.90;;;;;;5094138;28;20028;-72
2021/09/20 10:26:43;;;;;;;109.82;40.35;;;18.20;99.90;;;;;;5093915;28;20217;-72
2021/09/20 10:29:15;;;;;;;42.10;9.00;;;17.80;99.90;;;;;;5094083;28;20097;-72
2021/09/20 10:31:43;;;;;;;34.50;9.98;;;17.90;99.90;;;;;;5092559;28;20035;-73
2021/09/20 10:34:18;;;;;;;10.13;6.35;;;17.80;99.90;;;;;;5093750;28;20028;-66
2021/09/20 10:36:52;;;;;;;33.42;12.90;;;17.90;99.90;;;;;;5093592;28;20036;-73
2021/09/20 10:39:57;;;;;;;13.60;8.30;;;18.30;99.90;;;;;;5092446;28;20024;-72
2021/09/20 10:42:46;;;;;;;11.93;6.75;;;18.30;99.90;;;;;;5092299;28;20565;-72
2021/09/20 10:45:49;;;;;;;14.32;6.95;;;18.20;99.90;;;;;;5093802;28;20117;-73
2021/09/20 10:48:41;;;;;;;9.85;6.25;;;18.20;99.90;;;;;;5093693;28;20103;-72
2021/09/20 10:51:13;;;;;;;12.40;6.53;;;18.50;99.90;;;;;;5092465;28;20031;-72
2021/09/20 10:53:40;;;;;;;9.15;5.78;;;18.40;99.90;;;;;;5093321;28;20032;-72
2021/09/20 10:56:07;;;;;;;15.32;6.15;;;18.80;99.90;;;;;;5075495;28;20500;-73
2021/09/20 10:58:41;;;;;;;10.27;6.18;;;19.30;99.90;;;;;;5093113;28;20061;-72
2021/09/20 11:01:16;;;;;;;14.98;7.45;;;19.10;99.90;;;;;;5093345;28;20161;-72
2021/09/20 11:03:51;;;;;;;11.63;7.10;;;19.20;99.90;;;;;;5093101;28;20521;-72
2021/09/20 11:06:26;;;;;;;15.27;7.00;;;19.00;99.90;;;;;;5092091;28;20438;-73
2021/09/20 11:08:58;;;;;;;9.75;6.63;;;18.90;99.90;;;;;;5093103;28;20062;-73
2021/09/20 11:11:42;;;;;;;12.13;5.93;;;18.90;99.90;;;;;;5092884;28;20458;-72
2021/09/20 11:14:07;;;;;;;8.75;6.00;;;18.70;99.90;;;;;;5093119;28;20453;-73
2021/09/20 11:16:57;;;;;;;8.50;5.75;;;19.30;99.90;;;;;;5092875;28;20127;-72
2021/09/20 11:19:29;;;;;;;12.88;7.65;;;19.90;99.90;;;;;;5074234;28;20393;-72
2021/09/20 11:24:35;;;;;;;12.55;6.78;;;19.80;99.90;;;;;;5092774;28;20047;-72
2021/09/20 11:27:04;;;;;;;9.85;6.28;;;20.50;99.90;;;;;;5093156;28;20038;-72
2021/09/20 11:29:31;;;;;;;12.02;5.80;;;20.40;99.90;;;;;;5091833;28;20028;-72
2021/09/20 11:31:57;;;;;;;9.25;6.63;;;20.10;99.90;;;;;;5092705;28;20028;-71
2021/09/20 11:34:32;;;;;;;11.80;6.50;;;19.90;99.90;;;;;;5091323;28;20024;-72
2021/09/20 11:37:10;;;;;;;10.73;6.85;;;19.80;99.90;;;;;;5093002;28;20126;-72
2021/09/20 11:40:00;;;;;;;10.40;6.50;;;19.10;99.90;;;;;;5092524;28;20043;-72
2021/09/20 11:42:43;;;;;;;11.82;7.32;;;19.20;99.90;;;;;;5091492;28;20043;-72
2021/09/20 11:45:23;;;;;;;11.52;7.50;;;19.10;99.90;;;;;;5091317;28;20032;-72
2021/09/20 11:47:57;;;;;;;11.00;6.95;;;19.10;99.90;;;;;;5091954;28;20040;-73
2021/09/20 11:50:27;;;;;;;14.35;7.25;;;19.50;99.90;;;;;;5086721;28;20093;-72
2021/09/20 11:53:01;;;;;;;14.03;7.27;;;19.70;99.90;;;;;;5072331;28;20121;-73
2021/09/20 11:55:34;;;;;;;11.60;7.18;;;19.70;99.90;;;;;;5072127;28;20318;-73
2021/09/20 11:58:06;;;;;;;12.20;7.28;;;19.30;99.90;;;;;;5072249;28;20044;-72
2021/09/20 12:00:39;;;;;;;11.18;7.45;;;18.90;99.90;;;;;;5071956;28;20381;-73
2021/09/20 12:03:09;;;;;;;11.02;7.45;;;18.90;99.90;;;;;;5078416;28;20436;-72
2021/09/20 12:05:39;;;;;;;11.25;6.68;;;19.10;99.90;;;;;;5092196;28;20032;-72
2021/09/20 12:08:10;;;;;;;13.82;7.18;;;18.90;99.90;;;;;;5090970;28;20123;-73
2021/09/20 12:10:47;;;;;;;10.95;6.80;;;19.10;99.90;;;;;;5090849;28;20093;-72
2021/09/20 12:13:34;;;;;;;11.50;7.57;;;18.70;99.90;;;;;;5075031;28;20028;-72
2021/09/20 12:16:09;;;;;;;12.10;7.55;;;18.90;99.90;;;;;;5091037;28;20048;-72
2021/09/20 12:18:36;;;;;;;9.55;6.93;;;19.10;99.90;;;;;;5090828;28;20447;-72
2021/09/20 12:21:07;;;;;;;11.02;6.93;;;19.40;99.90;;;;;;5092274;28;20035;-72
2021/09/20 12:23:39;;;;;;;13.45;7.30;;;19.30;99.90;;;;;;5091305;28;20056;-72
2021/09/20 12:26:14;;;;;;;16.02;7.82;;;19.60;99.90;;;;;;5092205;28;20141;-72
2021/09/20 12:29:00;;;;;;;13.07;7.65;;;19.50;99.90;;;;;;5092283;28;20028;-72
2021/09/20 12:31:46;;;;;;;11.50;7.03;;;19.20;99.90;;;;;;5096154;28;20055;-72
2021/09/20 12:34:17;;;;;;;10.95;6.47;;;18.90;99.90;;;;;;5095761;28;20135;-72
2021/09/20 12:36:52;;;;;;;10.68;6.60;;;18.90;99.90;;;;;;5094851;28;20441;-72
2021/09/20 12:39:26;;;;;;;9.32;6.28;;;19.10;99.90;;;;;;5094924;28;20047;-73
2021/09/20 12:42:04;;;;;;;11.30;7.53;;;19.40;99.90;;;;;;5094522;28;20035;-73
2021/09/20 12:44:36;;;;;;;10.20;6.60;;;19.00;99.90;;;;;;5095873;28;20366;-73
2021/09/20 12:47:07;;;;;;;12.18;6.15;;;19.00;99.90;;;;;;5096292;28;20035;-72
2021/09/20 12:49:35;;;;;;;13.52;7.18;;;19.10;99.90;;;;;;5096176;28;20043;-72
2021/09/20 12:52:03;;;;;;;9.73;6.35;;;19.50;99.90;;;;;;5094335;28;20032;-72
2021/09/20 12:54:32;;;;;;;11.98;7.25;;;19.40;99.90;;;;;;5094727;28;20028;-72